createdAt,value
2023-09-23T00:03:47.559Z,4.12
2023-09-23T00:08:04.527Z,4.45
2023-09-23T00:12:21.010Z,4.53
2023-09-23T00:16:37.298Z,4.75
2023-09-23T00:20:53.866Z,4.35
2023-09-23T00:25:11.026Z,4.53
2023-09-23T00:29:30.146Z,4.37
2023-09-23T00:33:46.835Z,4.07
2023-09-23T00:38:03.868Z,4.50
2023-09-23T00:42:23.233Z,4.25
2023-09-23T00:46:41.394Z,4.20
2023-09-23T00:50:58.305Z,4.55
2023-09-23T00:55:16.219Z,4.40
2023-09-23T00:59:34.075Z,4.90
2023-09-23T01:03:51.255Z,4.53
2023-09-23T01:08:22.005Z,5.18
2023-09-23T01:12:38.334Z,4.57
2023-09-23T01:16:54.848Z,4.68
2023-09-23T01:21:11.221Z,4.93
2023-09-23T01:25:27.594Z,4.18
2023-09-23T01:29:43.911Z,5.32
2023-09-23T01:34:00.278Z,4.68
2023-09-23T01:38:17.054Z,4.62
2023-09-23T01:42:34.215Z,5.03
2023-09-23T01:46:50.960Z,5.00
2023-09-23T01:51:07.841Z,4.25
2023-09-23T01:55:24.204Z,5.20
2023-09-23T01:59:42.053Z,5.30
2023-09-23T02:03:59.594Z,4.70
2023-09-23T02:08:17.333Z,4.18
2023-09-23T02:12:34.610Z,4.40
2023-09-23T02:16:51.154Z,4.80
2023-09-23T02:21:08.732Z,4.32
2023-09-23T02:25:26.414Z,4.62
2023-09-23T02:29:42.982Z,4.80
2023-09-23T02:33:59.398Z,5.07
2023-09-23T02:38:15.833Z,4.68
2023-09-23T02:42:32.155Z,4.60
2023-09-23T02:46:49.749Z,4.90
2023-09-23T02:51:06.328Z,4.35
2023-09-23T02:55:22.819Z,4.57
2023-09-23T02:59:43.204Z,4.93
2023-09-23T03:04:08.134Z,4.75
2023-09-23T03:08:25.020Z,4.30
2023-09-23T03:12:52.634Z,5.03
2023-09-23T03:17:10.704Z,5.50
2023-09-23T03:21:27.170Z,4.68
2023-09-23T03:25:47.853Z,4.93
2023-09-23T03:30:07.236Z,4.75
2023-09-23T03:34:23.682Z,4.85
2023-09-23T03:38:40.051Z,4.53
2023-09-23T03:42:56.561Z,4.93
2023-09-23T03:47:12.984Z,4.30
2023-09-23T03:51:29.538Z,4.55
2023-09-23T03:55:45.927Z,5.05
2023-09-23T04:00:02.924Z,5.47
2023-09-23T04:04:19.396Z,5.30
2023-09-23T04:08:35.739Z,4.40
2023-09-23T04:12:54.451Z,4.72
2023-09-23T04:17:11.878Z,4.25
2023-09-23T04:21:28.647Z,3.42
2023-09-23T04:25:45.581Z,4.18
2023-09-23T04:30:13.036Z,3.62
2023-09-23T04:34:30.877Z,3.67
2023-09-23T04:38:47.554Z,3.33
2023-09-23T04:43:04.828Z,3.25
2023-09-23T04:47:21.319Z,3.17
2023-09-23T04:51:37.939Z,2.92
2023-09-23T04:55:54.349Z,2.62
2023-09-23T05:00:11.959Z,2.50
2023-09-23T05:04:28.747Z,2.67
2023-09-23T05:08:45.340Z,2.72
2023-09-23T05:13:01.851Z,2.67
2023-09-23T05:17:18.454Z,2.58
2023-09-23T05:21:35.029Z,2.28
2023-09-23T05:25:51.780Z,2.20
2023-09-23T05:30:11.910Z,2.50
2023-09-23T05:34:28.705Z,2.85
2023-09-23T05:38:45.262Z,2.92
2023-09-23T05:43:01.779Z,2.80
2023-09-23T05:47:18.320Z,2.92
2023-09-23T05:51:35.077Z,2.22
2023-09-23T05:55:51.824Z,2.47
2023-09-23T06:00:13.716Z,2.35
2023-09-23T06:04:31.754Z,2.42
2023-09-23T06:08:52.059Z,2.80
2023-09-23T06:13:09.058Z,2.37
2023-09-23T06:17:30.042Z,2.78
2023-09-23T06:21:46.990Z,2.17
2023-09-23T06:26:04.222Z,2.50
2023-09-23T06:30:20.673Z,2.60
2023-09-23T06:34:37.656Z,2.33
2023-09-23T06:38:54.360Z,2.50
2023-09-23T06:43:10.960Z,2.33
2023-09-23T06:47:27.646Z,2.50
2023-09-23T06:51:44.033Z,2.95
2023-09-23T06:56:00.533Z,2.60
2023-09-23T07:00:17.753Z,3.08
2023-09-23T07:04:34.379Z,2.72
2023-09-23T07:08:50.851Z,2.70
2023-09-23T07:13:09.925Z,3.05
2023-09-23T07:17:29.227Z,3.28
2023-09-23T07:21:45.751Z,3.10
2023-09-23T07:26:02.500Z,2.90
2023-09-23T07:30:19.282Z,2.87
2023-09-23T07:34:35.660Z,3.30
2023-09-23T07:38:52.042Z,3.35
2023-09-23T07:43:08.764Z,3.15
2023-09-23T07:47:26.743Z,3.58
2023-09-23T07:51:44.542Z,3.70
2023-09-23T07:56:01.269Z,3.58
2023-09-23T08:00:18.654Z,3.50
2023-09-23T08:04:39.089Z,3.87
2023-09-23T08:08:56.343Z,3.17
2023-09-23T08:13:12.811Z,3.85
2023-09-23T08:17:29.509Z,3.65
2023-09-23T08:21:47.242Z,3.30
2023-09-23T08:26:05.687Z,4.20
2023-09-23T08:30:22.813Z,3.70
2023-09-23T08:34:39.096Z,3.17
2023-09-23T08:38:55.727Z,3.03
2023-09-23T08:43:12.415Z,3.72
2023-09-23T08:47:30.492Z,3.28
2023-09-23T08:51:46.983Z,2.47
2023-09-23T08:56:03.806Z,2.92
2023-09-23T09:00:20.505Z,2.80
2023-09-23T09:04:37.594Z,3.05
2023-09-23T09:08:54.025Z,3.47
2023-09-23T09:13:10.531Z,3.33
2023-09-23T09:17:26.943Z,3.12
2023-09-23T09:21:43.328Z,2.45
2023-09-23T09:26:00.167Z,2.20
2023-09-23T09:30:17.065Z,2.40
2023-09-23T09:34:38.365Z,2.53
2023-09-23T09:38:56.192Z,3.00
2023-09-23T09:43:12.825Z,2.72
2023-09-23T09:47:29.737Z,3.03
2023-09-23T09:51:50.433Z,3.00
2023-09-23T09:56:07.875Z,3.65
2023-09-23T10:00:24.318Z,3.30
2023-09-23T10:04:46.317Z,3.28
2023-09-23T10:09:15.083Z,3.22
2023-09-23T10:13:33.214Z,3.58
2023-09-23T10:17:55.107Z,3.60
2023-09-23T10:22:19.689Z,4.03
2023-09-23T10:26:41.069Z,3.47
2023-09-23T10:31:08.256Z,3.90
2023-09-23T10:35:25.223Z,4.65
2023-09-23T10:39:46.151Z,3.83
2023-09-23T10:44:05.864Z,4.35
2023-09-23T10:48:22.774Z,4.72
2023-09-23T10:52:39.668Z,4.47
2023-09-23T10:57:08.048Z,4.95
2023-09-23T11:01:25.660Z,4.45
2023-09-23T11:05:45.148Z,5.70
2023-09-23T11:10:01.467Z,5.95
2023-09-23T11:14:21.571Z,5.80
2023-09-23T11:18:39.097Z,6.05
2023-09-23T11:23:05.250Z,5.47
2023-09-23T11:27:25.761Z,5.55
2023-09-23T11:31:42.095Z,6.03
2023-09-23T11:35:58.847Z,5.65
2023-09-23T11:40:18.964Z,5.30
2023-09-23T11:44:35.937Z,5.18
2023-09-23T11:48:52.430Z,4.68
2023-09-23T11:53:08.758Z,4.70
2023-09-23T11:57:25.112Z,5.40
2023-09-23T12:01:41.977Z,4.93
2023-09-23T12:05:59.008Z,5.40
2023-09-23T12:10:15.462Z,5.57
2023-09-23T12:14:31.881Z,5.50
2023-09-23T12:18:49.643Z,6.05
2023-09-23T12:23:06.054Z,5.37
2023-09-23T12:27:23.448Z,5.20
2023-09-23T12:31:39.832Z,4.57
2023-09-23T12:35:56.318Z,4.82
2023-09-23T12:40:12.904Z,4.18
2023-09-23T12:44:29.502Z,3.90
2023-09-23T12:48:46.821Z,3.30
2023-09-23T12:53:03.619Z,3.87
2023-09-23T12:57:19.977Z,4.00
2023-09-23T13:01:37.086Z,3.42
2023-09-23T13:05:53.619Z,3.30
2023-09-23T13:10:14.830Z,3.33
2023-09-23T13:14:31.393Z,3.55
2023-09-23T13:18:48.026Z,3.30
2023-09-23T13:23:10.220Z,3.20
2023-09-23T13:27:26.644Z,2.60
2023-09-23T13:31:43.056Z,2.85
2023-09-23T13:35:59.470Z,2.30
2023-09-23T13:40:16.269Z,2.20
2023-09-23T13:44:32.771Z,2.47
2023-09-23T13:48:49.427Z,2.60
2023-09-23T13:53:06.414Z,2.78
2023-09-23T13:57:23.174Z,2.80
2023-09-23T14:01:39.528Z,3.50
2023-09-23T14:05:55.931Z,3.15
2023-09-23T14:10:21.508Z,3.45
2023-09-23T14:14:39.095Z,3.60
2023-09-23T14:18:55.467Z,3.67
2023-09-23T14:23:12.574Z,3.90
2023-09-23T14:27:28.916Z,3.25
2023-09-23T14:31:45.346Z,2.78
2023-09-23T14:36:01.764Z,3.45
2023-09-23T14:40:18.298Z,2.55
2023-09-23T14:44:34.745Z,2.65
2023-09-23T14:48:51.157Z,2.72
2023-09-23T14:53:08.267Z,2.10
2023-09-23T14:57:24.870Z,2.50
2023-09-23T15:01:41.365Z,2.12
2023-09-23T15:05:57.908Z,1.80
2023-09-23T15:10:14.631Z,1.87
2023-09-23T15:14:31.250Z,1.80
2023-09-23T15:18:48.572Z,1.90
2023-09-23T15:23:06.104Z,1.80
2023-09-23T15:27:24.652Z,2.00
2023-09-23T15:31:42.195Z,1.95
2023-09-23T15:35:58.652Z,1.92
2023-09-23T15:40:17.829Z,2.10
2023-09-23T15:44:34.563Z,1.85
2023-09-23T15:48:51.501Z,2.17
2023-09-23T15:53:08.032Z,2.10
2023-09-23T15:57:24.527Z,2.03
2023-09-23T16:01:40.893Z,1.90
2023-09-23T16:05:57.611Z,1.65
2023-09-23T16:10:14.006Z,1.87
2023-09-23T16:14:30.392Z,1.83
2023-09-23T16:18:47.323Z,2.05
2023-09-23T16:23:03.814Z,2.17
2023-09-23T16:27:22.870Z,1.95
2023-09-23T16:31:39.216Z,1.83
2023-09-23T16:35:55.748Z,1.70
2023-09-23T16:40:12.592Z,1.55
2023-09-23T16:44:28.889Z,1.50
2023-09-23T16:48:45.687Z,1.35
2023-09-23T16:53:02.229Z,1.50
2023-09-23T16:57:22.322Z,1.20
2023-09-23T17:01:39.478Z,1.20
2023-09-23T17:05:57.456Z,1.70
2023-09-23T17:10:14.112Z,1.60
2023-09-23T17:14:30.814Z,1.60
2023-09-23T17:18:48.085Z,1.37
2023-09-23T17:23:04.877Z,1.67
2023-09-23T17:27:21.291Z,1.60
2023-09-23T17:31:38.393Z,1.60
2023-09-23T17:36:00.878Z,1.30
2023-09-23T17:40:17.589Z,1.57
2023-09-23T17:44:36.120Z,1.45
2023-09-23T17:48:54.116Z,1.50
2023-09-23T17:53:10.746Z,1.75
2023-09-23T17:57:29.804Z,1.80
2023-09-23T18:01:46.636Z,1.50
2023-09-23T18:06:04.035Z,1.98
2023-09-23T18:10:20.493Z,1.95
2023-09-23T18:14:37.250Z,2.15
2023-09-23T18:18:53.959Z,1.83
2023-09-23T18:23:28.306Z,2.00
2023-09-23T18:27:50.295Z,2.00
2023-09-23T18:32:09.387Z,2.75
2023-09-23T18:36:30.661Z,1.83
2023-09-23T18:40:47.579Z,2.00
2023-09-23T18:45:06.783Z,2.28
2023-09-23T18:49:25.021Z,1.90
2023-09-23T18:53:41.795Z,2.35
2023-09-23T18:57:58.433Z,2.40
2023-09-23T19:02:15.319Z,2.10
2023-09-23T19:06:31.980Z,2.15
2023-09-23T19:10:51.423Z,2.10
2023-09-23T19:15:09.311Z,2.58
2023-09-23T19:19:25.742Z,2.70
2023-09-23T19:23:48.375Z,2.15
2023-09-23T19:32:21.673Z,2.67
2023-09-23T19:36:38.531Z,2.70
2023-09-23T19:40:54.882Z,2.60
2023-09-23T19:45:12.637Z,2.92
2023-09-23T19:49:32.038Z,2.90
2023-09-23T19:53:48.597Z,2.75
2023-09-23T19:58:08.728Z,3.00
2023-09-23T20:02:26.044Z,2.70
2023-09-23T20:06:43.160Z,3.00
2023-09-23T20:11:04.189Z,2.55
2023-09-23T20:15:26.476Z,2.70
2023-09-23T20:19:42.877Z,2.85
2023-09-23T20:23:59.420Z,2.92
2023-09-23T20:28:18.966Z,2.87
2023-09-23T20:32:41.956Z,2.83
2023-09-23T20:37:00.912Z,2.72
2023-09-23T20:41:17.306Z,2.87
2023-09-23T20:45:36.047Z,3.00
2023-09-23T20:49:52.425Z,2.97
2023-09-23T20:54:08.799Z,3.03
2023-09-23T20:58:25.633Z,3.25
2023-09-23T21:02:43.591Z,3.35
2023-09-23T21:07:00.308Z,2.95
2023-09-23T21:11:18.312Z,3.03
2023-09-23T21:15:34.708Z,3.33
2023-09-23T21:19:51.680Z,3.12
2023-09-23T21:24:08.604Z,2.80
2023-09-23T21:28:25.062Z,3.70
2023-09-23T21:32:41.686Z,3.20
2023-09-23T21:36:58.726Z,2.87
2023-09-23T21:41:16.128Z,3.20
2023-09-23T21:45:32.711Z,2.87
2023-09-23T21:49:49.044Z,2.87
2023-09-23T21:54:06.081Z,3.10
2023-09-23T21:58:23.255Z,2.72
2023-09-23T22:02:39.706Z,3.45
2023-09-23T22:06:56.929Z,3.20
2023-09-23T22:11:13.666Z,3.30
2023-09-23T22:15:30.921Z,3.10
2023-09-23T22:19:47.275Z,3.28
2023-09-23T22:24:07.274Z,3.60
2023-09-23T22:28:23.652Z,3.33
2023-09-23T22:32:40.278Z,3.42
2023-09-23T22:36:56.675Z,2.62
2023-09-23T22:41:13.117Z,3.05
2023-09-23T22:45:38.526Z,3.20
2023-09-23T22:49:56.660Z,3.22
2023-09-23T22:54:13.271Z,2.95
2023-09-23T22:58:29.626Z,2.90
2023-09-23T23:02:47.705Z,3.08
2023-09-23T23:07:04.446Z,3.22
2023-09-23T23:11:22.127Z,2.70
2023-09-23T23:15:39.757Z,3.28
2023-09-23T23:19:57.071Z,2.80
2023-09-23T23:24:13.943Z,3.05
2023-09-23T23:28:32.429Z,3.28
2023-09-23T23:32:49.888Z,2.90
2023-09-23T23:37:08.487Z,3.00
2023-09-23T23:41:25.261Z,2.85
2023-09-23T23:45:41.655Z,2.58
2023-09-23T23:50:01.260Z,2.75
2023-09-23T23:54:18.261Z,2.80
2023-09-23T23:58:35.173Z,2.58
